Time;durP1;ratioP1;P1;durP2;ratioP2;P2;SDS_P1;SDS_P2;PMS_P1;PMS_P2;Temp;Humidity;BMP_temperature;BMP_pressure;BME280_temperature;BME280_humidity;BME280_pressure;Samples;Min_cycle;Max_cycle;Signal;HPM_P1;HPM_P2
2023/08/29 00:00:32;;;;;;;3.50;2.60;;;18.00;99.90;;;;;;4881210;28;20625;-17
2023/08/29 00:03:03;;;;;;;3.30;2.47;;;18.00;99.90;;;;;;4871907;29;20032;-17
2023/08/29 00:05:29;;;;;;;3.42;2.30;;;18.00;99.90;;;;;;4865163;28;20055;-18
2023/08/29 00:07:55;;;;;;;3.88;2.63;;;17.90;99.90;;;;;;4862100;28;20044;-17
2023/08/29 00:10:21;;;;;;;3.17;2.30;;;17.90;99.90;;;;;;4859748;28;20048;-18
2023/08/29 00:12:47;;;;;;;3.23;2.37;;;17.80;99.90;;;;;;4862418;28;20276;-18
2023/08/29 00:15:12;;;;;;;3.90;2.40;;;17.80;99.90;;;;;;4875888;28;20095;-17
2023/08/29 00:17:38;;;;;;;3.33;2.50;;;17.70;99.90;;;;;;4880368;28;20079;-18
2023/08/29 00:20:05;;;;;;;3.45;2.30;;;17.70;99.90;;;;;;4862832;29;20040;-17
2023/08/29 00:22:31;;;;;;;3.25;2.47;;;17.70;99.90;;;;;;4868219;28;20028;-17
2023/08/29 00:24:57;;;;;;;3.20;2.20;;;17.60;99.90;;;;;;4875117;28;20226;-17
2023/08/29 00:27:23;;;;;;;3.63;2.40;;;17.60;99.90;;;;;;4882092;29;20143;-20
2023/08/29 00:29:49;;;;;;;3.00;2.10;;;17.50;99.90;;;;;;4850942;28;20371;-20
2023/08/29 00:32:15;;;;;;;2.67;1.93;;;17.50;99.90;;;;;;4877212;28;20028;-20
2023/08/29 00:34:41;;;;;;;3.20;2.38;;;17.50;99.90;;;;;;4853294;28;20119;-20
2023/08/29 00:37:07;;;;;;;3.40;2.33;;;17.40;99.90;;;;;;4871841;28;20044;-21
2023/08/29 00:39:32;;;;;;;3.13;2.03;;;17.40;99.90;;;;;;4870737;28;20028;-20
2023/08/29 00:41:59;;;;;;;2.93;2.07;;;17.30;99.90;;;;;;4870328;29;20787;-21
2023/08/29 00:44:24;;;;;;;2.53;1.88;;;17.30;99.90;;;;;;4855287;28;20859;-20
2023/08/29 00:46:51;;;;;;;2.57;1.93;;;17.30;99.90;;;;;;4880620;29;20023;-21
2023/08/29 00:49:20;;;;;;;3.38;2.20;;;17.20;99.90;;;;;;4867702;29;20596;-20
2023/08/29 00:51:46;;;;;;;3.00;1.92;;;17.30;99.90;;;;;;4880748;29;20055;-20
2023/08/29 00:54:15;;;;;;;2.50;1.90;;;17.10;99.90;;;;;;4839693;28;20508;-21
2023/08/29 00:56:42;;;;;;;2.80;1.83;;;17.10;99.90;;;;;;4874018;28;20123;-21
2023/08/29 00:59:08;;;;;;;2.23;1.70;;;17.10;99.90;;;;;;4883469;28;20544;-20
2023/08/29 01:01:35;;;;;;;2.60;1.77;;;17.00;99.90;;;;;;4857755;28;20556;-20
2023/08/29 01:04:01;;;;;;;2.92;2.00;;;17.00;99.90;;;;;;4880675;28;20428;-21
2023/08/29 01:06:27;;;;;;;2.40;1.80;;;16.90;99.90;;;;;;4871332;28;20020;-20
2023/08/29 01:08:53;;;;;;;2.80;2.13;;;16.90;99.90;;;;;;4843075;28;20062;-20
2023/08/29 01:11:37;;;;;;;5.28;2.10;;;16.90;99.90;;;;;;4850174;28;20039;-20
2023/08/29 01:14:24;;;;;;;2.85;2.00;;;16.80;99.90;;;;;;4853469;28;20040;-21
2023/08/29 01:17:04;;;;;;;2.23;1.63;;;16.80;99.90;;;;;;4861115;28;20072;-20
2023/08/29 01:19:32;;;;;;;2.40;1.88;;;16.80;99.90;;;;;;4870204;29;20476;-21
2023/08/29 01:22:32;;;;;;;2.63;1.92;;;16.70;99.90;;;;;;4880465;29;20087;-21
2023/08/29 01:25:19;;;;;;;2.15;1.48;;;16.70;99.90;;;;;;4857138;28;20036;-21
2023/08/29 01:27:46;;;;;;;3.55;1.60;;;16.70;99.90;;;;;;4874010;28;20063;-21
2023/08/29 01:30:13;;;;;;;2.70;1.87;;;16.60;99.90;;;;;;4889906;29;20633;-21
2023/08/29 01:32:39;;;;;;;2.58;1.70;;;16.60;99.90;;;;;;4858952;28;20489;-20
2023/08/29 01:35:07;;;;;;;2.72;2.10;;;16.60;99.90;;;;;;4874764;29;20497;-19
2023/08/29 01:37:32;;;;;;;2.42;1.90;;;16.50;99.90;;;;;;4874865;29;20236;-21
2023/08/29 01:39:58;;;;;;;2.73;1.83;;;16.50;99.90;;;;;;4860587;28;20148;-20
2023/08/29 01:42:24;;;;;;;2.85;1.80;;;16.50;99.90;;;;;;4865141;28;20228;-21
2023/08/29 01:44:50;;;;;;;2.47;1.83;;;16.40;99.90;;;;;;4882975;28;20036;-21
2023/08/29 01:47:15;;;;;;;2.10;1.60;;;16.40;99.90;;;;;;4878906;29;20059;-21
2023/08/29 01:49:42;;;;;;;1.93;1.60;;;16.40;99.90;;;;;;4862458;28;20021;-21
2023/08/29 01:52:08;;;;;;;2.78;1.70;;;16.40;99.90;;;;;;4871385;28;20090;-21
2023/08/29 01:54:34;;;;;;;2.90;2.05;;;16.30;99.90;;;;;;4868255;28;20510;-21
2023/08/29 01:57:01;;;;;;;3.00;1.90;;;16.30;99.90;;;;;;4872287;28;20032;-21
2023/08/29 01:59:29;;;;;;;2.43;1.70;;;16.30;99.90;;;;;;4869800;29;20079;-21
2023/08/29 02:01:56;;;;;;;3.08;1.77;;;16.20;99.90;;;;;;4887428;29;20631;-21
2023/08/29 02:04:22;;;;;;;2.30;1.63;;;16.20;99.90;;;;;;4859639;28;20674;-21
2023/08/29 02:06:49;;;;;;;2.80;2.00;;;16.20;99.90;;;;;;4876113;28;20070;-21
2023/08/29 02:09:16;;;;;;;3.20;1.83;;;16.20;99.90;;;;;;4875417;29;20052;-21
2023/08/29 02:11:42;;;;;;;2.58;1.77;;;16.10;99.90;;;;;;4861431;28;20048;-21
2023/08/29 02:14:09;;;;;;;2.42;1.65;;;16.10;99.90;;;;;;4881710;28;20032;-21
2023/08/29 02:16:35;;;;;;;2.65;1.80;;;16.10;99.90;;;;;;4884042;28;20028;-20
2023/08/29 02:19:02;;;;;;;2.90;2.10;;;16.00;99.90;;;;;;4871591;28;20043;-20
2023/08/29 02:21:28;;;;;;;2.63;1.98;;;16.00;99.90;;;;;;4870605;28;20032;-21
2023/08/29 02:23:54;;;;;;;2.40;1.70;;;16.00;99.90;;;;;;4874609;28;20056;-21
2023/08/29 02:26:19;;;;;;;2.43;1.90;;;16.00;99.90;;;;;;4855347;28;20033;-21
2023/08/29 02:28:45;;;;;;;2.67;1.90;;;16.00;99.90;;;;;;4876418;28;20029;-21
2023/08/29 02:31:11;;;;;;;2.70;1.63;;;16.00;99.90;;;;;;4878232;28;20045;-21
2023/08/29 02:33:38;;;;;;;2.15;1.58;;;15.90;99.90;;;;;;4864583;29;20035;-21
2023/08/29 02:36:05;;;;;;;2.55;1.60;;;15.90;99.90;;;;;;4858821;28;20039;-21
2023/08/29 02:38:32;;;;;;;2.27;1.60;;;15.90;99.90;;;;;;4872317;28;20138;-21
2023/08/29 02:40:58;;;;;;;2.00;1.60;;;15.90;99.90;;;;;;4875098;29;20116;-21
2023/08/29 02:43:23;;;;;;;2.47;1.75;;;15.80;99.90;;;;;;4860986;28;20107;-21
2023/08/29 02:45:52;;;;;;;2.73;1.90;;;15.80;99.90;;;;;;4876851;28;20450;-21
2023/08/29 02:48:18;;;;;;;2.83;2.00;;;15.80;99.90;;;;;;4880090;28;20316;-21
2023/08/29 02:50:48;;;;;;;2.47;1.77;;;15.70;99.90;;;;;;4875277;28;20431;-21
2023/08/29 02:53:18;;;;;;;2.78;1.95;;;15.70;99.90;;;;;;4847766;28;20120;-21
2023/08/29 02:55:44;;;;;;;2.72;1.60;;;15.70;99.90;;;;;;4877712;28;20064;-20
2023/08/29 02:58:09;;;;;;;2.10;1.70;;;15.70;99.90;;;;;;4857288;28;20694;-21
2023/08/29 03:00:35;;;;;;;2.20;1.70;;;15.70;99.90;;;;;;4873083;28;20091;-21
2023/08/29 03:03:04;;;;;;;2.47;1.70;;;15.60;99.90;;;;;;4871058;29;20025;-21
2023/08/29 03:05:30;;;;;;;2.60;1.80;;;15.60;99.90;;;;;;4873227;28;20094;-21
2023/08/29 03:07:57;;;;;;;2.72;1.98;;;15.60;99.90;;;;;;4861283;28;20052;-21
2023/08/29 03:10:23;;;;;;;2.40;1.85;;;15.60;99.90;;;;;;4871128;29;20257;-21
2023/08/29 03:12:52;;;;;;;2.47;1.80;;;15.60;99.90;;;;;;4857675;28;20509;-21
2023/08/29 03:15:18;;;;;;;2.55;1.75;;;15.60;99.90;;;;;;4870250;28;20127;-21
2023/08/29 03:17:44;;;;;;;3.23;2.23;;;15.60;99.90;;;;;;4897749;28;20091;-21
2023/08/29 03:20:11;;;;;;;2.60;1.70;;;15.50;99.90;;;;;;4878400;29;20114;-21
2023/08/29 03:22:37;;;;;;;2.50;1.73;;;15.50;99.90;;;;;;4846966;28;20032;-21
2023/08/29 03:25:03;;;;;;;3.28;1.92;;;15.50;99.90;;;;;;4874550;28;20075;-21
2023/08/29 03:27:29;;;;;;;3.17;1.90;;;15.50;99.90;;;;;;4874461;29;20036;-21
2023/08/29 03:29:55;;;;;;;3.40;2.20;;;15.50;99.90;;;;;;4880696;28;20494;-21
2023/08/29 03:32:20;;;;;;;2.63;1.90;;;15.40;99.90;;;;;;4882627;28;20522;-21
2023/08/29 03:34:51;;;;;;;2.92;1.90;;;15.40;99.90;;;;;;4870245;29;20037;-21
2023/08/29 03:37:17;;;;;;;3.40;2.17;;;15.40;99.90;;;;;;4859911;28;20702;-21
2023/08/29 03:39:43;;;;;;;3.80;2.10;;;15.40;99.90;;;;;;4870771;29;20029;-21
2023/08/29 03:42:09;;;;;;;4.15;1.88;;;15.40;99.90;;;;;;4883135;28;20028;-21
2023/08/29 03:44:34;;;;;;;3.07;2.03;;;15.30;99.90;;;;;;4840803;28;20036;-21
2023/08/29 03:47:00;;;;;;;3.15;2.20;;;15.30;99.90;;;;;;4879400;28;20390;-21
2023/08/29 03:49:26;;;;;;;2.95;2.05;;;15.30;99.90;;;;;;4955871;28;20035;-21
2023/08/29 03:51:52;;;;;;;3.07;2.00;;;15.30;99.90;;;;;;4878239;29;20324;-21
2023/08/29 03:54:17;;;;;;;3.43;2.20;;;15.30;99.90;;;;;;4850616;28;20227;-21
2023/08/29 03:56:43;;;;;;;3.78;2.25;;;15.30;99.90;;;;;;4886733;29;20036;-21
2023/08/29 03:59:09;;;;;;;3.13;2.00;;;15.30;99.90;;;;;;4878035;28;20023;-21
2023/08/29 04:01:35;;;;;;;3.77;2.43;;;15.30;99.90;;;;;;4866960;28;20040;-21
2023/08/29 04:04:03;;;;;;;3.95;2.40;;;15.30;99.90;;;;;;4875924;28;20088;-21
2023/08/29 04:06:32;;;;;;;3.20;2.20;;;15.30;99.90;;;;;;4882130;28;20046;-21
2023/08/29 04:08:58;;;;;;;3.55;2.38;;;15.30;99.90;;;;;;4856942;28;20800;-21
2023/08/29 04:11:23;;;;;;;2.90;2.17;;;15.30;99.90;;;;;;4878694;29;20052;-21
2023/08/29 04:13:49;;;;;;;3.03;2.20;;;15.30;99.90;;;;;;4880968;28;20139;-21
2023/08/29 04:16:15;;;;;;;3.10;2.03;;;15.30;99.90;;;;;;4860257;28;20033;-21
2023/08/29 04:18:41;;;;;;;4.00;2.42;;;15.30;99.90;;;;;;4872345;28;20209;-21
2023/08/29 04:21:07;;;;;;;3.63;2.30;;;15.30;99.90;;;;;;4875221;28;20382;-21
2023/08/29 04:23:33;;;;;;;3.63;2.27;;;15.30;99.90;;;;;;4876548;29;20032;-21
2023/08/29 04:26:05;;;;;;;3.20;2.15;;;15.30;99.90;;;;;;4858288;28;20040;-21
2023/08/29 04:28:31;;;;;;;3.42;2.30;;;15.30;99.90;;;;;;4883806;28;20032;-21
2023/08/29 04:31:06;;;;;;;5.13;2.20;;;15.30;99.90;;;;;;4866330;28;20331;-21
2023/08/29 04:33:32;;;;;;;4.38;2.28;;;15.20;99.90;;;;;;4850376;28;20468;-21
2023/08/29 04:35:58;;;;;;;3.35;2.28;;;15.30;99.90;;;;;;4875075;29;20024;-21
2023/08/29 04:38:24;;;;;;;5.03;2.20;;;15.30;99.90;;;;;;4868978;28;20650;-21
2023/08/29 04:40:53;;;;;;;4.28;2.65;;;15.20;99.90;;;;;;4854884;28;20060;-21
2023/08/29 04:43:19;;;;;;;3.33;2.13;;;15.20;99.90;;;;;;4882807;29;20035;-21
2023/08/29 04:45:45;;;;;;;3.42;2.33;;;15.20;99.90;;;;;;4878515;28;20213;-21
2023/08/29 04:48:11;;;;;;;5.20;2.77;;;15.20;99.90;;;;;;4852373;28;20611;-21
2023/08/29 04:50:37;;;;;;;3.42;2.10;;;15.20;99.90;;;;;;4857742;28;20150;-21
2023/08/29 04:53:03;;;;;;;3.85;2.15;;;15.20;99.90;;;;;;4870981;29;20115;-21
2023/08/29 04:55:29;;;;;;;3.07;1.93;;;15.20;99.90;;;;;;4866478;28;20032;-21
2023/08/29 04:57:56;;;;;;;3.10;2.20;;;15.10;99.90;;;;;;4869119;28;20291;-21
2023/08/29 05:00:23;;;;;;;3.83;2.50;;;15.10;99.90;;;;;;4889103;28;20072;-21
2023/08/29 05:02:48;;;;;;;4.38;2.80;;;15.20;99.90;;;;;;4858510;28;20033;-21
2023/08/29 05:05:14;;;;;;;3.47;2.27;;;15.10;99.90;;;;;;4953631;28;20378;-21
2023/08/29 05:07:40;;;;;;;3.63;2.25;;;15.10;99.90;;;;;;4857733;28;20059;-21
2023/08/29 05:10:06;;;;;;;3.50;2.53;;;15.10;99.90;;;;;;4879687;28;20063;-21
2023/08/29 05:12:32;;;;;;;4.37;2.80;;;15.10;99.90;;;;;;4855475;28;20029;-21
2023/08/29 05:14:58;;;;;;;3.80;2.38;;;15.10;99.90;;;;;;4884274;28;20265;-21
2023/08/29 05:17:24;;;;;;;4.53;2.70;;;15.20;99.90;;;;;;4857670;28;20068;-21
2023/08/29 05:19:50;;;;;;;4.43;2.40;;;17.40;99.90;;;;;;4877428;29;20044;-21
2023/08/29 05:22:16;;;;;;;4.03;2.50;;;15.10;99.90;;;;;;4865198;28;20573;-21
2023/08/29 05:24:42;;;;;;;4.07;2.40;;;15.20;99.90;;;;;;4881072;28;20024;-21
2023/08/29 05:27:08;;;;;;;3.60;2.30;;;15.20;99.90;;;;;;4881880;28;20028;-21
2023/08/29 05:29:34;;;;;;;4.13;2.67;;;15.20;99.90;;;;;;4853837;28;20384;-21
2023/08/29 05:31:59;;;;;;;3.88;2.47;;;15.20;99.90;;;;;;4886564;29;20035;-21
2023/08/29 05:34:26;;;;;;;3.73;2.43;;;15.20;99.90;;;;;;4866605;28;20039;-21
2023/08/29 05:36:51;;;;;;;3.72;2.28;;;15.20;99.90;;;;;;4879301;28;20060;-21
2023/08/29 05:39:17;;;;;;;3.28;2.22;;;15.20;99.90;;;;;;4871041;28;20115;-21
2023/08/29 05:41:43;;;;;;;3.60;2.57;;;15.20;99.90;;;;;;4884865;28;20226;-21
2023/08/29 05:44:09;;;;;;;3.72;2.40;;;15.30;99.90;;;;;;4851440;28;20036;-21
2023/08/29 05:46:34;;;;;;;4.23;2.70;;;15.20;99.90;;;;;;4882469;28;20150;-21
2023/08/29 05:49:00;;;;;;;4.80;2.78;;;15.20;99.90;;;;;;4876771;28;20128;-21
2023/08/29 05:51:26;;;;;;;4.83;2.93;;;15.20;99.90;;;;;;4873463;28;20285;-21
2023/08/29 05:53:53;;;;;;;3.55;2.28;;;15.30;99.90;;;;;;4852755;29;20039;-21
2023/08/29 05:56:19;;;;;;;5.07;2.78;;;15.30;99.90;;;;;;4868565;28;20681;-21
2023/08/29 05:58:46;;;;;;;3.33;1.77;;;15.30;99.90;;;;;;4965003;28;20422;-21
2023/08/29 06:01:12;;;;;;;3.53;2.35;;;15.40;99.90;;;;;;4860445;28;20456;-21
2023/08/29 06:03:37;;;;;;;3.50;2.37;;;15.40;99.90;;;;;;4873284;28;20659;-21
2023/08/29 06:06:03;;;;;;;3.25;2.35;;;15.40;99.90;;;;;;4865241;28;20037;-21
2023/08/29 06:08:34;;;;;;;4.05;2.65;;;15.40;99.90;;;;;;4877707;28;20048;-21
2023/08/29 06:11:00;;;;;;;4.32;2.70;;;15.50;99.90;;;;;;4874305;28;20131;-21
2023/08/29 06:13:26;;;;;;;4.00;2.83;;;15.50;99.90;;;;;;4880178;28;20025;-21
2023/08/29 06:15:53;;;;;;;4.05;2.67;;;15.60;99.90;;;;;;4863222;28;20324;-21
2023/08/29 06:18:20;;;;;;;3.83;2.42;;;15.60;99.90;;;;;;4876019;28;20115;-21
2023/08/29 06:20:45;;;;;;;4.45;2.70;;;15.70;99.90;;;;;;4882867;28;20040;-21
2023/08/29 06:23:11;;;;;;;3.57;2.53;;;15.70;99.90;;;;;;4871191;28;20391;-21
2023/08/29 06:25:37;;;;;;;5.20;3.28;;;15.80;99.90;;;;;;4873738;28;20155;-21
2023/08/29 06:28:03;;;;;;;4.05;2.70;;;15.80;99.90;;;;;;4879610;29;20130;-21
2023/08/29 06:30:29;;;;;;;3.83;2.77;;;15.90;99.90;;;;;;4874633;29;20033;-21
2023/08/29 06:32:54;;;;;;;5.45;3.47;;;15.90;99.90;;;;;;4858512;28;20035;-21
2023/08/29 06:35:20;;;;;;;6.33;3.10;;;16.10;99.90;;;;;;4879258;28;20036;-21
2023/08/29 06:37:46;;;;;;;4.90;3.20;;;16.10;99.90;;;;;;4857861;28;20709;-21
2023/08/29 06:40:12;;;;;;;5.50;3.57;;;16.20;99.90;;;;;;4882742;28;20535;-21
2023/08/29 06:42:38;;;;;;;6.40;3.83;;;16.20;99.90;;;;;;4875786;28;20035;-21
2023/08/29 06:45:05;;;;;;;5.57;3.60;;;16.30;99.90;;;;;;4882509;29;20040;-21
2023/08/29 06:47:32;;;;;;;6.53;4.03;;;16.40;99.90;;;;;;4860648;28;20060;-21
2023/08/29 06:49:57;;;;;;;6.40;3.83;;;16.40;99.90;;;;;;4861158;28;20267;-21
2023/08/29 06:52:23;;;;;;;7.53;4.25;;;16.50;99.90;;;;;;4886582;28;20108;-22
2023/08/29 06:54:49;;;;;;;7.10;4.20;;;16.60;99.90;;;;;;4859350;28;20100;-21
2023/08/29 06:57:14;;;;;;;7.13;4.28;;;16.70;99.90;;;;;;4838810;29;20499;-21
2023/08/29 06:59:40;;;;;;;6.18;4.13;;;16.80;99.90;;;;;;4878432;29;20472;-21
2023/08/29 07:02:06;;;;;;;6.10;3.87;;;16.80;99.90;;;;;;4858589;28;20029;-21
2023/08/29 07:04:32;;;;;;;6.43;3.97;;;16.90;99.90;;;;;;4880373;29;20024;-21
2023/08/29 07:06:58;;;;;;;6.93;4.15;;;17.00;99.90;;;;;;4892487;28;20040;-21
2023/08/29 07:09:27;;;;;;;8.03;4.37;;;17.10;99.90;;;;;;4861048;28;20134;-21
2023/08/29 07:11:55;;;;;;;6.80;4.30;;;17.10;99.90;;;;;;4862627;28;20060;-21
2023/08/29 07:14:21;;;;;;;6.65;4.20;;;17.20;99.90;;;;;;4884780;28;20044;-21
2023/08/29 07:16:47;;;;;;;6.70;4.27;;;17.30;99.90;;;;;;4878860;28;20393;-21
2023/08/29 07:19:12;;;;;;;6.28;3.83;;;17.40;99.90;;;;;;4858917;28;20398;-21
2023/08/29 07:21:38;;;;;;;8.00;4.40;;;17.50;99.90;;;;;;4878554;28;20477;-21
2023/08/29 07:24:04;;;;;;;7.03;4.13;;;17.50;99.90;;;;;;4862784;28;20037;-21
2023/08/29 07:26:31;;;;;;;6.75;4.30;;;17.60;99.90;;;;;;4879980;28;20545;-21
2023/08/29 07:28:56;;;;;;;6.85;4.10;;;17.60;99.90;;;;;;4883053;28;20041;-21
2023/08/29 07:31:22;;;;;;;6.50;4.23;;;17.70;99.90;;;;;;4876020;29;20333;-21
2023/08/29 07:33:48;;;;;;;6.82;4.47;;;17.70;99.90;;;;;;4849195;28;20037;-21
2023/08/29 07:36:14;;;;;;;7.80;4.70;;;19.40;99.90;;;;;;4862484;28;20109;-21
2023/08/29 07:38:39;;;;;;;6.17;3.80;;;17.80;99.90;;;;;;4891403;28;20036;-21
2023/08/29 07:41:05;;;;;;;7.10;4.55;;;17.90;99.90;;;;;;4862526;28;20028;-21
2023/08/29 07:43:31;;;;;;;6.63;3.97;;;18.00;99.90;;;;;;4867510;28;20045;-21
2023/08/29 07:45:58;;;;;;;7.23;4.37;;;18.10;99.90;;;;;;4883374;28;20032;-22
2023/08/29 07:48:24;;;;;;;7.45;5.00;;;18.10;99.90;;;;;;4855339;28;20044;-21
2023/08/29 07:50:50;;;;;;;9.90;4.60;;;18.20;99.90;;;;;;4880096;29;20037;-21
2023/08/29 07:53:15;;;;;;;7.77;4.73;;;18.30;99.90;;;;;;4877534;28;20098;-22
2023/08/29 07:55:41;;;;;;;8.20;4.65;;;18.30;99.90;;;;;;4865024;28;20039;-21
2023/08/29 07:58:07;;;;;;;7.50;4.90;;;18.40;99.90;;;;;;4878640;29;20941;-22
2023/08/29 08:00:34;;;;;;;7.20;4.67;;;18.50;99.90;;;;;;4868378;28;20051;-22
2023/08/29 08:03:00;;;;;;;7.18;4.75;;;18.60;99.90;;;;;;4878526;28;20028;-22
2023/08/29 08:05:27;;;;;;;7.40;5.10;;;18.60;99.90;;;;;;4853154;28;20033;-22
2023/08/29 08:07:53;;;;;;;8.60;5.82;;;18.70;99.90;;;;;;4877156;28;21687;-22
2023/08/29 08:10:19;;;;;;;8.55;4.78;;;18.70;99.90;;;;;;4859351;28;20305;-22
2023/08/29 08:12:47;;;;;;;7.70;4.87;;;18.80;99.90;;;;;;4881832;29;20032;-22
2023/08/29 08:15:12;;;;;;;8.52;5.13;;;18.90;99.90;;;;;;4872137;28;20044;-21
2023/08/29 08:17:39;;;;;;;6.57;4.43;;;19.00;99.90;;;;;;4875458;28;20036;-22
2023/08/29 08:20:08;;;;;;;7.85;4.93;;;19.00;99.90;;;;;;4854175;28;20037;-22
2023/08/29 08:22:35;;;;;;;7.13;4.73;;;19.10;99.90;;;;;;4891623;28;20177;-22
2023/08/29 08:25:01;;;;;;;8.90;5.72;;;19.20;99.90;;;;;;4876430;29;20041;-22
2023/08/29 08:27:27;;;;;;;7.53;5.10;;;19.20;99.90;;;;;;4857718;28;20704;-22
2023/08/29 08:29:52;;;;;;;7.13;5.03;;;19.20;99.90;;;;;;4882148;28;20040;-22
2023/08/29 08:32:18;;;;;;;8.38;5.00;;;19.30;99.90;;;;;;4866937;28;20790;-22
2023/08/29 08:34:44;;;;;;;8.00;5.37;;;19.30;99.90;;;;;;4878158;28;20040;-22
2023/08/29 08:37:10;;;;;;;8.43;5.10;;;19.40;99.90;;;;;;4850570;28;20103;-22
2023/08/29 08:39:36;;;;;;;8.17;4.97;;;19.40;99.90;;;;;;4876189;28;20060;-22
2023/08/29 08:42:05;;;;;;;8.18;5.22;;;19.40;99.90;;;;;;4852859;28;20976;-22
2023/08/29 08:44:34;;;;;;;6.10;3.72;;;19.50;99.90;;;;;;4867139;28;20412;-22
2023/08/29 08:47:00;;;;;;;6.22;4.25;;;19.50;99.90;;;;;;4873915;28;20414;-22
2023/08/29 08:49:26;;;;;;;8.82;4.68;;;19.60;99.90;;;;;;4873769;28;20111;-22
2023/08/29 08:51:52;;;;;;;6.13;4.33;;;19.70;99.90;;;;;;4847425;28;20131;-22
2023/08/29 08:54:18;;;;;;;6.82;4.60;;;19.70;99.90;;;;;;4862335;28;20040;-22
2023/08/29 08:56:45;;;;;;;8.60;4.20;;;19.70;99.90;;;;;;4879061;28;20036;-22
2023/08/29 08:59:11;;;;;;;8.57;4.93;;;19.80;99.90;;;;;;4878255;28;20147;-22
2023/08/29 09:01:38;;;;;;;7.83;5.00;;;19.80;99.90;;;;;;4884276;28;20041;-22
2023/08/29 09:04:04;;;;;;;7.15;4.55;;;19.90;99.90;;;;;;4865438;28;20044;-22
2023/08/29 09:06:30;;;;;;;6.72;4.53;;;20.00;99.90;;;;;;4869564;28;20438;-22
2023/08/29 09:09:25;;;;;;;7.70;4.70;;;20.10;99.90;;;;;;4848353;28;20056;-22
2023/08/29 09:11:52;;;;;;;6.53;4.68;;;20.20;99.90;;;;;;4874955;28;20549;-22
2023/08/29 09:14:18;;;;;;;7.73;4.80;;;20.20;99.90;;;;;;4846255;28;20025;-22
2023/08/29 09:16:44;;;;;;;6.90;4.68;;;20.30;99.90;;;;;;4859849;28;20131;-22
2023/08/29 09:19:10;;;;;;;6.78;4.68;;;20.40;99.90;;;;;;4865594;28;20047;-23
2023/08/29 09:21:36;;;;;;;7.17;4.40;;;20.40;99.90;;;;;;4869788;28;20060;-23
2023/08/29 09:24:04;;;;;;;7.50;4.90;;;20.50;99.90;;;;;;4848004;28;20674;-23
2023/08/29 09:26:32;;;;;;;6.80;4.53;;;20.60;99.90;;;;;;4879580;28;20108;-22
2023/08/29 09:28:59;;;;;;;8.57;5.30;;;20.70;99.90;;;;;;4857560;28;20025;-23
2023/08/29 09:31:25;;;;;;;7.30;4.82;;;20.80;99.90;;;;;;4878976;28;20021;-23
2023/08/29 09:33:51;;;;;;;6.63;4.80;;;20.90;99.90;;;;;;4865909;28;20045;-23
2023/08/29 09:36:19;;;;;;;7.75;4.97;;;21.00;99.90;;;;;;4895485;28;20569;-20
2023/08/29 09:38:45;;;;;;;7.70;4.82;;;21.10;99.90;;;;;;4857519;28;20612;-21
2023/08/29 09:41:17;;;;;;;7.13;4.50;;;21.30;99.90;;;;;;4878100;28;20258;-21
2023/08/29 09:43:47;;;;;;;7.65;4.40;;;21.40;99.90;;;;;;4859177;28;20390;-21
2023/08/29 09:46:13;;;;;;;6.70;4.20;;;21.40;99.90;;;;;;4863766;28;20384;-20
2023/08/29 09:48:55;;;;;;;6.82;4.07;;;21.50;99.90;;;;;;4877348;28;20509;-21
2023/08/29 09:51:25;;;;;;;6.93;4.03;;;21.60;99.90;;;;;;4872028;28;20037;-21
2023/08/29 09:53:52;;;;;;;6.10;3.95;;;21.60;99.90;;;;;;4845665;28;20051;-21
2023/08/29 09:56:23;;;;;;;6.63;4.30;;;21.70;99.90;;;;;;4875252;28;20033;-21
2023/08/29 09:58:50;;;;;;;6.35;4.47;;;21.70;99.90;;;;;;4886892;28;20719;-21
2023/08/29 10:01:18;;;;;;;6.00;4.22;;;21.70;99.90;;;;;;4873446;28;20481;-21
2023/08/29 10:03:46;;;;;;;6.70;4.05;;;21.80;99.90;;;;;;4876496;28;20083;-21
2023/08/29 10:06:15;;;;;;;5.00;3.60;;;21.80;99.90;;;;;;4875034;28;20671;-21
2023/08/29 10:08:51;;;;;;;5.83;3.93;;;21.90;99.90;;;;;;4870646;28;20668;-20
2023/08/29 10:11:18;;;;;;;5.93;3.83;;;22.00;99.90;;;;;;4881819;29;20539;-20
2023/08/29 10:13:46;;;;;;;5.05;3.28;;;22.00;99.90;;;;;;4861713;28;20535;-20
2023/08/29 10:16:14;;;;;;;5.07;3.63;;;22.10;99.90;;;;;;4849740;28;20056;-21
2023/08/29 10:18:41;;;;;;;4.25;3.30;;;22.20;99.90;;;;;;4863707;28;20465;-20
2023/08/29 10:21:07;;;;;;;5.47;3.10;;;22.30;99.90;;;;;;4866574;28;20032;-21
2023/08/29 10:23:36;;;;;;;4.13;3.10;;;22.40;99.90;;;;;;4873816;28;21387;-21
2023/08/29 10:26:02;;;;;;;4.93;2.72;;;22.50;99.90;;;;;;4839670;28;20443;-21
2023/08/29 10:28:29;;;;;;;4.40;3.05;;;22.70;99.90;;;;;;4836540;29;20035;-20
2023/08/29 10:31:00;;;;;;;3.70;2.65;;;22.80;99.90;;;;;;4861860;28;20274;-20
2023/08/29 10:33:26;;;;;;;4.30;2.73;;;23.00;99.90;;;;;;4868111;28;20167;-20
2023/08/29 10:35:52;;;;;;;3.92;2.78;;;22.90;99.90;;;;;;4870360;28;20048;-23
2023/08/29 10:38:18;;;;;;;4.22;3.00;;;23.10;99.90;;;;;;4872059;29;20036;-23
2023/08/29 10:40:46;;;;;;;4.35;2.65;;;23.30;99.90;;;;;;4854009;28;20442;-23
2023/08/29 10:43:19;;;;;;;3.00;2.23;;;23.40;99.90;;;;;;4881332;28;20013;-23
2023/08/29 10:45:51;;;;;;;3.30;2.50;;;23.50;99.90;;;;;;4868069;28;20028;-20
2023/08/29 10:48:18;;;;;;;3.88;2.70;;;23.60;99.90;;;;;;4848300;28;20474;-21
2023/08/29 10:51:08;;;;;;;3.63;2.55;;;23.80;99.90;;;;;;4891879;28;20064;-21
2023/08/29 10:53:46;;;;;;;3.78;2.40;;;24.20;99.90;;;;;;4886551;28;20045;-21
2023/08/29 10:56:13;;;;;;;2.40;2.10;;;24.70;99.90;;;;;;4852875;28;26905;-21
2023/08/29 10:58:40;;;;;;;3.08;2.08;;;25.20;99.90;;;;;;4862561;28;20452;-21
2023/08/29 11:01:39;;;;;;;2.47;1.90;;;25.70;99.90;;;;;;4873176;29;20283;-21
2023/08/29 11:04:14;;;;;;;1.70;1.60;;;26.30;99.90;;;;;;4853316;28;20234;-21
2023/08/29 11:06:53;;;;;;;2.08;1.60;;;26.80;99.90;;;;;;4870934;28;20029;-21
2023/08/29 11:09:23;;;;;;;1.90;1.47;;;27.00;99.90;;;;;;4861772;28;20580;-21
2023/08/29 11:12:09;;;;;;;2.00;1.50;;;27.10;99.90;;;;;;4853108;28;20041;-21
2023/08/29 11:14:55;;;;;;;1.80;1.42;;;27.00;99.90;;;;;;4869775;28;20029;-21
2023/08/29 11:17:24;;;;;;;2.00;1.50;;;26.80;99.90;;;;;;4868500;28;20028;-21
2023/08/29 11:19:55;;;;;;;1.88;1.60;;;26.60;99.90;;;;;;4864755;28;20072;-21
2023/08/29 11:22:23;;;;;;;1.40;1.30;;;26.50;99.90;;;;;;4937952;28;20436;-21
2023/08/29 11:24:54;;;;;;;1.60;1.50;;;26.30;99.90;;;;;;4938546;28;20027;-23
2023/08/29 11:27:24;;;;;;;1.58;1.30;;;26.20;99.90;;;;;;4852185;28;20029;-23
2023/08/29 11:29:52;;;;;;;1.35;1.20;;;26.10;99.90;;;;;;4864214;28;20540;-23
2023/08/29 11:32:21;;;;;;;1.65;1.23;;;26.00;99.90;;;;;;4877874;29;20866;-23
2023/08/29 11:34:54;;;;;;;1.33;1.23;;;25.90;99.90;;;;;;4837396;28;20055;-23
2023/08/29 11:37:23;;;;;;;1.25;1.10;;;25.90;99.90;;;;;;4871137;28;20428;-23
2023/08/29 11:39:55;;;;;;;1.67;1.17;;;25.80;99.90;;;;;;4865871;28;20024;-23
2023/08/29 11:42:22;;;;;;;1.10;1.00;;;25.80;99.90;;;;;;4852009;28;20406;-23
2023/08/29 11:44:53;;;;;;;1.20;1.10;;;25.70;99.90;;;;;;4842224;28;20033;-23
2023/08/29 11:47:19;;;;;;;1.37;1.00;;;25.70;99.90;;;;;;4890489;29;20049;-23
2023/08/29 11:49:54;;;;;;;1.30;1.00;;;25.70;99.90;;;;;;4868094;28;20048;-23
2023/08/29 11:52:20;;;;;;;1.40;0.90;;;25.70;99.90;;;;;;4860387;28;20040;-23
2023/08/29 11:54:52;;;;;;;1.20;1.10;;;25.80;99.90;;;;;;4865819;28;20034;-23
2023/08/29 11:57:18;;;;;;;1.20;1.10;;;25.90;99.90;;;;;;4873241;28;20772;-23
2023/08/29 11:59:45;;;;;;;0.85;0.82;;;25.90;99.90;;;;;;4860563;28;20278;-23
2023/08/29 12:02:12;;;;;;;2.05;1.35;;;26.10;99.90;;;;;;4875528;28;20028;-23
2023/08/29 12:04:43;;;;;;;1.85;1.20;;;26.10;99.90;;;;;;4871441;28;20087;-24
2023/08/29 12:07:15;;;;;;;1.40;1.30;;;26.20;99.90;;;;;;4861823;28;20482;-21
2023/08/29 12:09:42;;;;;;;1.30;1.10;;;26.40;99.90;;;;;;4868959;28;20687;-21
2023/08/29 12:12:09;;;;;;;1.17;1.08;;;26.60;99.90;;;;;;4870134;28;20062;-21
2023/08/29 12:14:53;;;;;;;1.10;1.00;;;26.80;99.90;;;;;;4869167;28;20059;-21
2023/08/29 12:17:20;;;;;;;1.33;1.23;;;26.90;99.90;;;;;;4880972;29;20091;-19
2023/08/29 12:19:47;;;;;;;1.00;0.80;;;27.00;99.90;;;;;;4856781;28;20281;-20
2023/08/29 12:22:13;;;;;;;1.33;1.00;;;26.90;99.90;;;;;;4880575;28;20040;-18
2023/08/29 12:24:41;;;;;;;1.67;1.10;;;26.90;99.90;;;;;;4875681;28;20320;-19
2023/08/29 12:27:07;;;;;;;1.08;1.00;;;26.70;99.90;;;;;;4875056;28;20103;-19
2023/08/29 12:29:33;;;;;;;1.60;1.20;;;26.60;99.90;;;;;;4871857;28;20041;-20
2023/08/29 12:31:59;;;;;;;1.00;0.90;;;26.50;99.90;;;;;;4874012;28;20537;-19
2023/08/29 12:34:25;;;;;;;1.20;1.08;;;26.30;99.90;;;;;;4880857;28;20028;-20
2023/08/29 12:36:51;;;;;;;1.17;1.08;;;26.20;99.90;;;;;;4868760;28;21397;-19
2023/08/29 12:39:17;;;;;;;1.20;1.10;;;26.10;99.90;;;;;;4864104;28;20141;-19
2023/08/29 12:41:43;;;;;;;1.40;1.17;;;25.90;99.90;;;;;;4864050;28;20045;-19
2023/08/29 12:44:09;;;;;;;2.07;1.20;;;25.80;99.90;;;;;;4872931;28;20537;-19
2023/08/29 12:46:34;;;;;;;1.20;1.10;;;25.70;99.90;;;;;;4845255;28;20032;-20
2023/08/29 12:49:03;;;;;;;1.30;1.20;;;25.60;99.90;;;;;;4890219;28;20029;-20